Terminal Aerodrome Forecast
Issued by NWS

Home | Current Version | Previous Version | Graphics & Text | Print | Product List | Glossary On
Versions: 1 2 3 4 5 6 7 8 9 10 11 12 13 14 15 16 17 18
000
FTUS43 KBIS 212100 AAA
TAFJMS
TAF AMD
KJMS 212110Z 2121/2218 12011KT P6SM FEW025 SCT090
      TEMPO 2200/2202 VRB30G40KT 2SM +TSRAGR OVC050CB
     FM220200 04010KT P6SM VCTS OVC050CB
     FM220400 35012KT P6SM BKN050=

USA.gov is the U.S. government's official web portal to all federal, state and local government web resources and services.